sensor_id;sensor_type;location;lat;lon;timestamp;P1;durP1;ratioP1;P2;durP2;ratioP2
1220;SDS011;600;48.044;7.878;2022-10-16T00:01:46;3.10;;;1.97;;
1220;SDS011;600;48.044;7.878;2022-10-16T00:04:13;2.10;;;1.43;;
1220;SDS011;600;48.044;7.878;2022-10-16T00:06:39;2.77;;;1.63;;
1220;SDS011;600;48.044;7.878;2022-10-16T00:09:06;3.97;;;1.60;;
1220;SDS011;600;48.044;7.878;2022-10-16T00:11:34;1.27;;;1.17;;
1220;SDS011;600;48.044;7.878;2022-10-16T00:14:04;2.50;;;1.33;;
1220;SDS011;600;48.044;7.878;2022-10-16T00:16:33;4.00;;;1.80;;
1220;SDS011;600;48.044;7.878;2022-10-16T00:19:00;2.30;;;2.10;;
1220;SDS011;600;48.044;7.878;2022-10-16T00:21:27;1.93;;;1.80;;
1220;SDS011;600;48.044;7.878;2022-10-16T00:23:56;3.30;;;2.10;;
1220;SDS011;600;48.044;7.878;2022-10-16T00:26:25;4.90;;;2.47;;
1220;SDS011;600;48.044;7.878;2022-10-16T00:28:52;2.27;;;2.07;;
1220;SDS011;600;48.044;7.878;2022-10-16T00:31:21;3.33;;;1.93;;
1220;SDS011;600;48.044;7.878;2022-10-16T00:33:48;2.40;;;1.90;;
1220;SDS011;600;48.044;7.878;2022-10-16T00:36:17;5.23;;;2.00;;
1220;SDS011;600;48.044;7.878;2022-10-16T00:38:45;7.20;;;1.90;;
1220;SDS011;600;48.044;7.878;2022-10-16T00:41:12;2.77;;;1.50;;
1220;SDS011;600;48.044;7.878;2022-10-16T00:43:41;1.63;;;1.50;;
1220;SDS011;600;48.044;7.878;2022-10-16T00:46:10;2.17;;;1.70;;
1220;SDS011;600;48.044;7.878;2022-10-16T00:48:45;2.10;;;1.20;;
1220;SDS011;600;48.044;7.878;2022-10-16T00:51:17;3.63;;;1.50;;
1220;SDS011;600;48.044;7.878;2022-10-16T00:53:48;2.87;;;1.50;;
1220;SDS011;600;48.044;7.878;2022-10-16T00:56:15;2.27;;;1.70;;
1220;SDS011;600;48.044;7.878;2022-10-16T00:58:42;4.27;;;1.80;;
1220;SDS011;600;48.044;7.878;2022-10-16T01:01:09;2.60;;;1.70;;
1220;SDS011;600;48.044;7.878;2022-10-16T01:03:36;1.60;;;1.43;;
1220;SDS011;600;48.044;7.878;2022-10-16T01:06:07;2.10;;;1.73;;
1220;SDS011;600;48.044;7.878;2022-10-16T01:08:44;4.57;;;1.60;;
1220;SDS011;600;48.044;7.878;2022-10-16T01:11:21;3.00;;;1.80;;
1220;SDS011;600;48.044;7.878;2022-10-16T01:13:54;2.00;;;1.50;;
1220;SDS011;600;48.044;7.878;2022-10-16T01:16:28;4.00;;;1.83;;
1220;SDS011;600;48.044;7.878;2022-10-16T01:19:00;3.20;;;1.40;;
1220;SDS011;600;48.044;7.878;2022-10-16T01:21:37;3.30;;;1.60;;
1220;SDS011;600;48.044;7.878;2022-10-16T01:24:08;2.90;;;1.90;;
1220;SDS011;600;48.044;7.878;2022-10-16T01:26:48;6.53;;;1.83;;
1220;SDS011;600;48.044;7.878;2022-10-16T01:29:28;1.90;;;1.40;;
1220;SDS011;600;48.044;7.878;2022-10-16T01:32:00;7.10;;;1.50;;
1220;SDS011;600;48.044;7.878;2022-10-16T01:34:31;4.30;;;1.40;;
1220;SDS011;600;48.044;7.878;2022-10-16T01:37:02;1.57;;;1.23;;
1220;SDS011;600;48.044;7.878;2022-10-16T01:39:32;2.90;;;1.73;;
1220;SDS011;600;48.044;7.878;2022-10-16T01:42:05;3.87;;;1.90;;
1220;SDS011;600;48.044;7.878;2022-10-16T01:44:35;3.00;;;2.27;;
1220;SDS011;600;48.044;7.878;2022-10-16T01:47:03;2.97;;;2.40;;
1220;SDS011;600;48.044;7.878;2022-10-16T01:49:32;3.77;;;2.23;;
1220;SDS011;600;48.044;7.878;2022-10-16T01:52:02;2.60;;;1.83;;
1220;SDS011;600;48.044;7.878;2022-10-16T01:54:32;2.87;;;1.63;;
1220;SDS011;600;48.044;7.878;2022-10-16T01:57:02;5.27;;;1.60;;
1220;SDS011;600;48.044;7.878;2022-10-16T01:59:35;2.80;;;1.57;;
1220;SDS011;600;48.044;7.878;2022-10-16T02:02:05;3.23;;;1.93;;
1220;SDS011;600;48.044;7.878;2022-10-16T02:04:36;4.50;;;1.90;;
1220;SDS011;600;48.044;7.878;2022-10-16T02:07:05;5.60;;;1.70;;
1220;SDS011;600;48.044;7.878;2022-10-16T02:09:33;1.30;;;1.20;;
1220;SDS011;600;48.044;7.878;2022-10-16T02:12:03;6.00;;;2.30;;
1220;SDS011;600;48.044;7.878;2022-10-16T02:14:36;1.57;;;1.47;;
1220;SDS011;600;48.044;7.878;2022-10-16T02:17:09;2.27;;;2.07;;
1220;SDS011;600;48.044;7.878;2022-10-16T02:19:37;2.60;;;1.80;;
1220;SDS011;600;48.044;7.878;2022-10-16T02:22:04;4.20;;;1.70;;
1220;SDS011;600;48.044;7.878;2022-10-16T02:24:35;4.80;;;1.60;;
1220;SDS011;600;48.044;7.878;2022-10-16T02:27:11;4.70;;;1.50;;
1220;SDS011;600;48.044;7.878;2022-10-16T02:29:43;2.00;;;1.50;;
1220;SDS011;600;48.044;7.878;2022-10-16T02:32:15;3.73;;;1.70;;
1220;SDS011;600;48.044;7.878;2022-10-16T02:34:45;1.80;;;1.70;;
1220;SDS011;600;48.044;7.878;2022-10-16T02:37:14;3.10;;;1.60;;
1220;SDS011;600;48.044;7.878;2022-10-16T02:39:42;2.00;;;1.30;;
1220;SDS011;600;48.044;7.878;2022-10-16T02:42:11;3.23;;;1.33;;
1220;SDS011;600;48.044;7.878;2022-10-16T02:44:38;2.60;;;1.20;;
1220;SDS011;600;48.044;7.878;2022-10-16T02:47:05;1.53;;;0.93;;
1220;SDS011;600;48.044;7.878;2022-10-16T02:49:32;2.27;;;1.50;;
1220;SDS011;600;48.044;7.878;2022-10-16T02:51:59;2.40;;;1.07;;
1220;SDS011;600;48.044;7.878;2022-10-16T02:54:25;3.90;;;1.33;;
1220;SDS011;600;48.044;7.878;2022-10-16T02:56:52;3.77;;;1.23;;
1220;SDS011;600;48.044;7.878;2022-10-16T02:59:20;2.43;;;1.60;;
1220;SDS011;600;48.044;7.878;2022-10-16T03:01:47;1.80;;;1.57;;
1220;SDS011;600;48.044;7.878;2022-10-16T03:04:14;4.70;;;1.57;;
1220;SDS011;600;48.044;7.878;2022-10-16T03:06:40;2.67;;;1.60;;
1220;SDS011;600;48.044;7.878;2022-10-16T03:09:07;1.40;;;1.30;;
1220;SDS011;600;48.044;7.878;2022-10-16T03:11:34;3.97;;;1.23;;
1220;SDS011;600;48.044;7.878;2022-10-16T03:14:01;1.90;;;1.27;;
1220;SDS011;600;48.044;7.878;2022-10-16T03:16:29;1.87;;;1.40;;
1220;SDS011;600;48.044;7.878;2022-10-16T03:18:55;1.20;;;1.20;;
1220;SDS011;600;48.044;7.878;2022-10-16T03:21:22;2.17;;;1.50;;
1220;SDS011;600;48.044;7.878;2022-10-16T03:23:49;1.90;;;1.03;;
1220;SDS011;600;48.044;7.878;2022-10-16T03:26:16;4.30;;;1.60;;
1220;SDS011;600;48.044;7.878;2022-10-16T03:28:43;1.50;;;1.40;;
1220;SDS011;600;48.044;7.878;2022-10-16T03:31:10;1.47;;;1.10;;
1220;SDS011;600;48.044;7.878;2022-10-16T03:33:38;5.50;;;1.20;;
1220;SDS011;600;48.044;7.878;2022-10-16T03:36:04;2.20;;;1.50;;
1220;SDS011;600;48.044;7.878;2022-10-16T03:38:32;2.17;;;1.37;;
1220;SDS011;600;48.044;7.878;2022-10-16T03:40:59;3.40;;;1.20;;
1220;SDS011;600;48.044;7.878;2022-10-16T03:43:26;1.33;;;1.23;;
1220;SDS011;600;48.044;7.878;2022-10-16T03:45:52;3.00;;;1.20;;
1220;SDS011;600;48.044;7.878;2022-10-16T03:48:19;1.33;;;1.20;;
1220;SDS011;600;48.044;7.878;2022-10-16T03:50:47;3.30;;;1.70;;
1220;SDS011;600;48.044;7.878;2022-10-16T03:53:15;4.17;;;1.73;;
1220;SDS011;600;48.044;7.878;2022-10-16T03:55:42;1.70;;;1.10;;
1220;SDS011;600;48.044;7.878;2022-10-16T03:58:09;1.30;;;1.20;;
1220;SDS011;600;48.044;7.878;2022-10-16T04:00:39;3.13;;;1.30;;
1220;SDS011;600;48.044;7.878;2022-10-16T04:03:06;2.20;;;1.20;;
1220;SDS011;600;48.044;7.878;2022-10-16T04:05:33;2.70;;;1.30;;
1220;SDS011;600;48.044;7.878;2022-10-16T04:08:01;1.83;;;1.20;;
1220;SDS011;600;48.044;7.878;2022-10-16T04:10:28;3.80;;;1.80;;
1220;SDS011;600;48.044;7.878;2022-10-16T04:12:55;6.27;;;1.50;;
1220;SDS011;600;48.044;7.878;2022-10-16T04:15:21;2.50;;;1.60;;
1220;SDS011;600;48.044;7.878;2022-10-16T04:17:49;1.40;;;1.30;;
1220;SDS011;600;48.044;7.878;2022-10-16T04:20:16;2.93;;;1.63;;
1220;SDS011;600;48.044;7.878;2022-10-16T04:22:43;3.90;;;1.23;;
1220;SDS011;600;48.044;7.878;2022-10-16T04:25:11;3.83;;;1.80;;
1220;SDS011;600;48.044;7.878;2022-10-16T04:27:38;1.70;;;1.60;;
1220;SDS011;600;48.044;7.878;2022-10-16T04:30:05;3.30;;;1.70;;
1220;SDS011;600;48.044;7.878;2022-10-16T04:32:33;2.57;;;1.60;;
1220;SDS011;600;48.044;7.878;2022-10-16T04:34:59;1.53;;;1.43;;
1220;SDS011;600;48.044;7.878;2022-10-16T04:37:26;2.30;;;1.57;;
1220;SDS011;600;48.044;7.878;2022-10-16T04:39:53;3.13;;;1.27;;
1220;SDS011;600;48.044;7.878;2022-10-16T04:42:21;4.50;;;1.73;;
1220;SDS011;600;48.044;7.878;2022-10-16T04:44:48;3.40;;;2.10;;
1220;SDS011;600;48.044;7.878;2022-10-16T04:47:15;2.77;;;1.40;;
1220;SDS011;600;48.044;7.878;2022-10-16T04:49:42;3.23;;;1.73;;
1220;SDS011;600;48.044;7.878;2022-10-16T04:52:08;1.70;;;1.47;;
1220;SDS011;600;48.044;7.878;2022-10-16T04:54:35;1.83;;;1.60;;
1220;SDS011;600;48.044;7.878;2022-10-16T04:57:02;4.33;;;1.40;;
1220;SDS011;600;48.044;7.878;2022-10-16T04:59:31;2.20;;;1.70;;
1220;SDS011;600;48.044;7.878;2022-10-16T05:01:58;3.27;;;1.50;;
1220;SDS011;600;48.044;7.878;2022-10-16T05:04:24;6.83;;;2.20;;
1220;SDS011;600;48.044;7.878;2022-10-16T05:06:51;2.30;;;1.50;;
1220;SDS011;600;48.044;7.878;2022-10-16T05:09:18;1.80;;;1.70;;
1220;SDS011;600;48.044;7.878;2022-10-16T05:11:45;2.00;;;1.57;;
1220;SDS011;600;48.044;7.878;2022-10-16T05:14:12;2.83;;;1.53;;
1220;SDS011;600;48.044;7.878;2022-10-16T05:16:40;2.50;;;1.47;;
1220;SDS011;600;48.044;7.878;2022-10-16T05:19:07;1.53;;;1.43;;
1220;SDS011;600;48.044;7.878;2022-10-16T05:21:33;3.90;;;1.63;;
1220;SDS011;600;48.044;7.878;2022-10-16T05:24:00;4.10;;;1.43;;
1220;SDS011;600;48.044;7.878;2022-10-16T05:26:27;3.63;;;1.20;;
1220;SDS011;600;48.044;7.878;2022-10-16T05:28:54;3.20;;;1.57;;
1220;SDS011;600;48.044;7.878;2022-10-16T05:31:20;5.23;;;1.60;;
1220;SDS011;600;48.044;7.878;2022-10-16T05:33:48;4.20;;;1.50;;
1220;SDS011;600;48.044;7.878;2022-10-16T05:36:15;2.80;;;1.53;;
1220;SDS011;600;48.044;7.878;2022-10-16T05:38:43;2.60;;;2.07;;
1220;SDS011;600;48.044;7.878;2022-10-16T05:41:10;2.70;;;1.93;;
1220;SDS011;600;48.044;7.878;2022-10-16T05:43:37;3.43;;;1.50;;
1220;SDS011;600;48.044;7.878;2022-10-16T05:46:04;3.60;;;1.83;;
1220;SDS011;600;48.044;7.878;2022-10-16T05:48:31;5.43;;;1.83;;
1220;SDS011;600;48.044;7.878;2022-10-16T05:51:01;5.80;;;1.80;;
1220;SDS011;600;48.044;7.878;2022-10-16T05:53:29;6.20;;;1.57;;
1220;SDS011;600;48.044;7.878;2022-10-16T05:55:57;2.83;;;2.13;;
1220;SDS011;600;48.044;7.878;2022-10-16T05:58:25;4.37;;;2.43;;
1220;SDS011;600;48.044;7.878;2022-10-16T06:00:55;1.63;;;1.53;;
1220;SDS011;600;48.044;7.878;2022-10-16T06:03:22;5.40;;;2.00;;
1220;SDS011;600;48.044;7.878;2022-10-16T06:05:49;4.73;;;2.10;;
1220;SDS011;600;48.044;7.878;2022-10-16T06:08:18;2.40;;;1.60;;
1220;SDS011;600;48.044;7.878;2022-10-16T06:10:45;2.00;;;1.80;;
1220;SDS011;600;48.044;7.878;2022-10-16T06:13:13;4.73;;;1.73;;
1220;SDS011;600;48.044;7.878;2022-10-16T06:15:41;3.90;;;1.73;;
1220;SDS011;600;48.044;7.878;2022-10-16T06:18:08;3.30;;;2.37;;
1220;SDS011;600;48.044;7.878;2022-10-16T06:20:35;4.93;;;2.60;;
1220;SDS011;600;48.044;7.878;2022-10-16T06:23:02;2.30;;;2.17;;
1220;SDS011;600;48.044;7.878;2022-10-16T06:25:31;1.97;;;1.80;;
1220;SDS011;600;48.044;7.878;2022-10-16T06:27:58;2.70;;;2.10;;
1220;SDS011;600;48.044;7.878;2022-10-16T06:30:25;1.93;;;1.80;;
1220;SDS011;600;48.044;7.878;2022-10-16T06:32:52;4.03;;;2.00;;
1220;SDS011;600;48.044;7.878;2022-10-16T06:35:18;1.90;;;1.50;;
1220;SDS011;600;48.044;7.878;2022-10-16T06:37:45;2.30;;;2.20;;
1220;SDS011;600;48.044;7.878;2022-10-16T06:40:12;3.67;;;3.23;;
1220;SDS011;600;48.044;7.878;2022-10-16T06:42:41;5.53;;;2.70;;
1220;SDS011;600;48.044;7.878;2022-10-16T06:45:08;4.50;;;2.60;;
1220;SDS011;600;48.044;7.878;2022-10-16T06:47:35;5.20;;;3.03;;
1220;SDS011;600;48.044;7.878;2022-10-16T06:50:02;4.53;;;3.50;;
1220;SDS011;600;48.044;7.878;2022-10-16T06:52:31;3.43;;;3.10;;
1220;SDS011;600;48.044;7.878;2022-10-16T06:54:58;4.10;;;3.20;;
1220;SDS011;600;48.044;7.878;2022-10-16T06:57:25;3.80;;;3.50;;
1220;SDS011;600;48.044;7.878;2022-10-16T06:59:53;4.87;;;4.10;;
1220;SDS011;600;48.044;7.878;2022-10-16T07:02:20;5.67;;;4.07;;
1220;SDS011;600;48.044;7.878;2022-10-16T07:04:47;6.60;;;3.83;;
1220;SDS011;600;48.044;7.878;2022-10-16T07:07:13;4.47;;;3.93;;
1220;SDS011;600;48.044;7.878;2022-10-16T07:09:40;7.43;;;4.20;;
1220;SDS011;600;48.044;7.878;2022-10-16T07:12:07;4.97;;;4.10;;
1220;SDS011;600;48.044;7.878;2022-10-16T07:14:34;6.03;;;3.20;;
1220;SDS011;600;48.044;7.878;2022-10-16T07:17:02;3.33;;;3.00;;
1220;SDS011;600;48.044;7.878;2022-10-16T07:19:28;3.93;;;3.03;;
1220;SDS011;600;48.044;7.878;2022-10-16T07:21:55;3.43;;;3.13;;
1220;SDS011;600;48.044;7.878;2022-10-16T07:24:22;4.07;;;3.20;;
1220;SDS011;600;48.044;7.878;2022-10-16T07:26:49;3.80;;;3.50;;
1220;SDS011;600;48.044;7.878;2022-10-16T07:29:17;3.93;;;2.97;;
1220;SDS011;600;48.044;7.878;2022-10-16T07:31:45;3.70;;;2.70;;
1220;SDS011;600;48.044;7.878;2022-10-16T07:34:15;7.10;;;3.30;;
1220;SDS011;600;48.044;7.878;2022-10-16T07:36:43;3.27;;;2.97;;
1220;SDS011;600;48.044;7.878;2022-10-16T07:39:11;3.50;;;2.50;;
1220;SDS011;600;48.044;7.878;2022-10-16T07:41:37;2.77;;;2.57;;
1220;SDS011;600;48.044;7.878;2022-10-16T07:44:04;4.07;;;3.00;;
1220;SDS011;600;48.044;7.878;2022-10-16T07:46:31;3.37;;;3.07;;
1220;SDS011;600;48.044;7.878;2022-10-16T07:48:59;3.30;;;2.70;;
1220;SDS011;600;48.044;7.878;2022-10-16T07:51:27;3.20;;;2.90;;
1220;SDS011;600;48.044;7.878;2022-10-16T07:53:54;3.30;;;2.67;;
1220;SDS011;600;48.044;7.878;2022-10-16T07:56:21;3.20;;;2.90;;
1220;SDS011;600;48.044;7.878;2022-10-16T07:58:48;3.33;;;3.03;;
1220;SDS011;600;48.044;7.878;2022-10-16T08:01:16;4.57;;;3.40;;
1220;SDS011;600;48.044;7.878;2022-10-16T08:03:43;6.93;;;3.43;;
1220;SDS011;600;48.044;7.878;2022-10-16T08:06:11;4.00;;;2.80;;
1220;SDS011;600;48.044;7.878;2022-10-16T08:08:40;3.27;;;3.00;;
1220;SDS011;600;48.044;7.878;2022-10-16T08:11:06;4.53;;;2.83;;
1220;SDS011;600;48.044;7.878;2022-10-16T08:13:33;4.03;;;2.47;;
1220;SDS011;600;48.044;7.878;2022-10-16T08:16:00;3.73;;;2.80;;
1220;SDS011;600;48.044;7.878;2022-10-16T08:18:28;3.50;;;2.67;;
1220;SDS011;600;48.044;7.878;2022-10-16T08:20:55;3.10;;;2.80;;
1220;SDS011;600;48.044;7.878;2022-10-16T08:23:23;12.70;;;3.27;;
1220;SDS011;600;48.044;7.878;2022-10-16T08:25:52;2.97;;;2.67;;
1220;SDS011;600;48.044;7.878;2022-10-16T08:28:19;3.30;;;2.70;;
1220;SDS011;600;48.044;7.878;2022-10-16T08:30:46;5.73;;;2.97;;
1220;SDS011;600;48.044;7.878;2022-10-16T08:33:13;4.03;;;2.87;;
1220;SDS011;600;48.044;7.878;2022-10-16T08:35:40;6.20;;;3.40;;
1220;SDS011;600;48.044;7.878;2022-10-16T08:38:06;4.23;;;3.27;;
1220;SDS011;600;48.044;7.878;2022-10-16T08:40:34;3.77;;;3.20;;
1220;SDS011;600;48.044;7.878;2022-10-16T08:43:11;3.80;;;3.60;;
1220;SDS011;600;48.044;7.878;2022-10-16T08:45:54;3.70;;;3.40;;
1220;SDS011;600;48.044;7.878;2022-10-16T08:48:35;2.60;;;2.40;;
1220;SDS011;600;48.044;7.878;2022-10-16T08:51:08;3.13;;;2.90;;
1220;SDS011;600;48.044;7.878;2022-10-16T08:53:39;2.63;;;2.43;;
1220;SDS011;600;48.044;7.878;2022-10-16T08:56:12;2.80;;;2.60;;
1220;SDS011;600;48.044;7.878;2022-10-16T08:58:40;4.33;;;2.10;;
1220;SDS011;600;48.044;7.878;2022-10-16T09:01:10;5.60;;;2.57;;
1220;SDS011;600;48.044;7.878;2022-10-16T09:03:42;5.60;;;2.50;;
1220;SDS011;600;48.044;7.878;2022-10-16T09:06:29;5.90;;;2.30;;
1220;SDS011;600;48.044;7.878;2022-10-16T09:09:09;2.03;;;1.83;;
1220;SDS011;600;48.044;7.878;2022-10-16T09:11:48;3.30;;;2.23;;
1220;SDS011;600;48.044;7.878;2022-10-16T09:14:29;2.60;;;2.40;;
1220;SDS011;600;48.044;7.878;2022-10-16T09:17:07;4.80;;;2.27;;
1220;SDS011;600;48.044;7.878;2022-10-16T09:19:48;2.20;;;1.80;;
1220;SDS011;600;48.044;7.878;2022-10-16T09:22:22;2.37;;;2.03;;
1220;SDS011;600;48.044;7.878;2022-10-16T09:24:53;2.20;;;2.00;;
1220;SDS011;600;48.044;7.878;2022-10-16T09:27:24;1.83;;;1.73;;
1220;SDS011;600;48.044;7.878;2022-10-16T09:29:53;2.00;;;1.90;;
1220;SDS011;600;48.044;7.878;2022-10-16T09:32:20;2.83;;;2.50;;
1220;SDS011;600;48.044;7.878;2022-10-16T09:34:49;2.50;;;1.60;;
1220;SDS011;600;48.044;7.878;2022-10-16T09:37:19;2.50;;;2.00;;
1220;SDS011;600;48.044;7.878;2022-10-16T09:39:48;2.67;;;2.47;;
1220;SDS011;600;48.044;7.878;2022-10-16T09:42:16;2.10;;;2.00;;
1220;SDS011;600;48.044;7.878;2022-10-16T09:44:47;1.80;;;1.70;;
1220;SDS011;600;48.044;7.878;2022-10-16T09:47:18;3.33;;;1.90;;
1220;SDS011;600;48.044;7.878;2022-10-16T09:49:50;2.40;;;2.20;;
1220;SDS011;600;48.044;7.878;2022-10-16T09:52:18;2.00;;;1.90;;
1220;SDS011;600;48.044;7.878;2022-10-16T09:54:49;2.03;;;1.90;;
1220;SDS011;600;48.044;7.878;2022-10-16T09:57:17;2.70;;;1.80;;
1220;SDS011;600;48.044;7.878;2022-10-16T09:59:47;1.60;;;1.50;;
1220;SDS011;600;48.044;7.878;2022-10-16T10:02:17;3.07;;;1.43;;
1220;SDS011;600;48.044;7.878;2022-10-16T10:04:48;1.93;;;1.70;;
1220;SDS011;600;48.044;7.878;2022-10-16T10:07:17;2.43;;;1.67;;
1220;SDS011;600;48.044;7.878;2022-10-16T10:09:46;2.50;;;1.70;;
1220;SDS011;600;48.044;7.878;2022-10-16T10:12:20;1.60;;;1.50;;
1220;SDS011;600;48.044;7.878;2022-10-16T10:14:48;1.70;;;1.60;;
1220;SDS011;600;48.044;7.878;2022-10-16T10:17:19;1.90;;;1.50;;
1220;SDS011;600;48.044;7.878;2022-10-16T10:19:48;1.47;;;1.40;;
1220;SDS011;600;48.044;7.878;2022-10-16T10:22:18;1.53;;;1.40;;
1220;SDS011;600;48.044;7.878;2022-10-16T10:28:13;3.00;;;1.50;;
1220;SDS011;600;48.044;7.878;2022-10-16T10:31:02;1.87;;;1.50;;
1220;SDS011;600;48.044;7.878;2022-10-16T10:33:37;1.87;;;1.70;;
1220;SDS011;600;48.044;7.878;2022-10-16T10:36:12;5.07;;;2.17;;
1220;SDS011;600;48.044;7.878;2022-10-16T10:38:47;2.03;;;1.50;;
1220;SDS011;600;48.044;7.878;2022-10-16T10:41:24;3.00;;;1.73;;
1220;SDS011;600;48.044;7.878;2022-10-16T10:44:05;1.60;;;1.50;;
1220;SDS011;600;48.044;7.878;2022-10-16T10:46:42;2.23;;;1.33;;
1220;SDS011;600;48.044;7.878;2022-10-16T10:49:19;2.33;;;1.70;;
1220;SDS011;600;48.044;7.878;2022-10-16T10:52:02;2.03;;;1.50;;
1220;SDS011;600;48.044;7.878;2022-10-16T10:54:41;4.20;;;2.03;;
1220;SDS011;600;48.044;7.878;2022-10-16T10:57:19;5.67;;;1.70;;
1220;SDS011;600;48.044;7.878;2022-10-16T10:59:57;1.70;;;1.63;;
1220;SDS011;600;48.044;7.878;2022-10-16T11:02:31;1.30;;;1.30;;
1220;SDS011;600;48.044;7.878;2022-10-16T11:08:02;2.13;;;1.70;;
1220;SDS011;600;48.044;7.878;2022-10-16T11:10:38;1.70;;;1.60;;
1220;SDS011;600;48.044;7.878;2022-10-16T11:13:13;1.90;;;1.80;;
1220;SDS011;600;48.044;7.878;2022-10-16T11:15:46;1.80;;;1.67;;
1220;SDS011;600;48.044;7.878;2022-10-16T11:18:16;2.30;;;2.10;;
1220;SDS011;600;48.044;7.878;2022-10-16T11:20:50;2.50;;;2.10;;
1220;SDS011;600;48.044;7.878;2022-10-16T11:23:21;1.90;;;1.80;;
1220;SDS011;600;48.044;7.878;2022-10-16T11:25:53;1.43;;;1.37;;
1220;SDS011;600;48.044;7.878;2022-10-16T11:28:23;1.87;;;1.30;;
1220;SDS011;600;48.044;7.878;2022-10-16T11:30:55;2.63;;;1.50;;
1220;SDS011;600;48.044;7.878;2022-10-16T11:33:27;4.17;;;1.90;;
1220;SDS011;600;48.044;7.878;2022-10-16T11:36:02;4.20;;;1.40;;
1220;SDS011;600;48.044;7.878;2022-10-16T11:38:35;1.70;;;1.60;;
1220;SDS011;600;48.044;7.878;2022-10-16T11:41:09;2.53;;;2.30;;
1220;SDS011;600;48.044;7.878;2022-10-16T11:43:42;2.17;;;1.97;;
1220;SDS011;600;48.044;7.878;2022-10-16T11:46:12;6.73;;;3.20;;
1220;SDS011;600;48.044;7.878;2022-10-16T11:48:45;2.53;;;2.33;;
1220;SDS011;600;48.044;7.878;2022-10-16T11:51:19;1.70;;;1.60;;
1220;SDS011;600;48.044;7.878;2022-10-16T11:53:53;2.10;;;2.00;;
1220;SDS011;600;48.044;7.878;2022-10-16T11:56:25;1.83;;;1.57;;
1220;SDS011;600;48.044;7.878;2022-10-16T11:58:55;2.10;;;1.60;;
1220;SDS011;600;48.044;7.878;2022-10-16T12:01:27;2.27;;;1.70;;
1220;SDS011;600;48.044;7.878;2022-10-16T12:04:02;3.33;;;2.00;;
1220;SDS011;600;48.044;7.878;2022-10-16T12:06:39;2.27;;;2.07;;
1220;SDS011;600;48.044;7.878;2022-10-16T12:09:10;2.43;;;1.50;;
1220;SDS011;600;48.044;7.878;2022-10-16T12:11:41;1.57;;;1.43;;
1220;SDS011;600;48.044;7.878;2022-10-16T12:14:21;1.60;;;1.40;;
1220;SDS011;600;48.044;7.878;2022-10-16T12:17:03;1.80;;;1.67;;
1220;SDS011;600;48.044;7.878;2022-10-16T12:19:56;1.57;;;1.47;;
1220;SDS011;600;48.044;7.878;2022-10-16T12:22:26;1.40;;;1.40;;
1220;SDS011;600;48.044;7.878;2022-10-16T12:24:55;1.60;;;1.50;;
1220;SDS011;600;48.044;7.878;2022-10-16T12:27:23;1.83;;;1.73;;
1220;SDS011;600;48.044;7.878;2022-10-16T12:29:54;2.33;;;1.40;;
1220;SDS011;600;48.044;7.878;2022-10-16T12:32:24;2.40;;;1.53;;
1220;SDS011;600;48.044;7.878;2022-10-16T12:34:55;1.97;;;1.80;;
1220;SDS011;600;48.044;7.878;2022-10-16T12:37:23;1.93;;;1.73;;
1220;SDS011;600;48.044;7.878;2022-10-16T12:39:54;2.60;;;1.30;;
1220;SDS011;600;48.044;7.878;2022-10-16T12:42:23;1.67;;;1.57;;
1220;SDS011;600;48.044;7.878;2022-10-16T12:44:59;1.57;;;1.47;;
1220;SDS011;600;48.044;7.878;2022-10-16T12:47:35;1.50;;;1.40;;
1220;SDS011;600;48.044;7.878;2022-10-16T12:52:46;3.03;;;1.90;;
1220;SDS011;600;48.044;7.878;2022-10-16T12:55:15;1.63;;;1.53;;
1220;SDS011;600;48.044;7.878;2022-10-16T12:57:45;1.70;;;1.60;;
1220;SDS011;600;48.044;7.878;2022-10-16T13:00:28;1.50;;;1.50;;
1220;SDS011;600;48.044;7.878;2022-10-16T13:03:23;3.30;;;1.60;;
1220;SDS011;600;48.044;7.878;2022-10-16T13:06:13;2.43;;;2.00;;
1220;SDS011;600;48.044;7.878;2022-10-16T13:08:55;6.27;;;2.60;;
1220;SDS011;600;48.044;7.878;2022-10-16T13:11:37;8.37;;;2.60;;
1220;SDS011;600;48.044;7.878;2022-10-16T13:14:20;2.10;;;2.00;;
1220;SDS011;600;48.044;7.878;2022-10-16T13:16:59;3.93;;;2.40;;
1220;SDS011;600;48.044;7.878;2022-10-16T13:19:37;1.90;;;1.80;;
1220;SDS011;600;48.044;7.878;2022-10-16T13:22:11;5.27;;;2.43;;
1220;SDS011;600;48.044;7.878;2022-10-16T13:24:48;2.93;;;2.07;;
1220;SDS011;600;48.044;7.878;2022-10-16T13:27:29;2.27;;;1.70;;
1220;SDS011;600;48.044;7.878;2022-10-16T13:30:09;1.67;;;1.57;;
1220;SDS011;600;48.044;7.878;2022-10-16T13:32:39;1.83;;;1.60;;
1220;SDS011;600;48.044;7.878;2022-10-16T13:35:19;1.60;;;1.50;;
1220;SDS011;600;48.044;7.878;2022-10-16T13:37:48;2.03;;;1.80;;
1220;SDS011;600;48.044;7.878;2022-10-16T13:40:19;1.70;;;1.60;;
1220;SDS011;600;48.044;7.878;2022-10-16T13:42:47;2.40;;;1.80;;
1220;SDS011;600;48.044;7.878;2022-10-16T13:45:18;2.30;;;1.90;;
1220;SDS011;600;48.044;7.878;2022-10-16T13:47:46;2.50;;;2.10;;
1220;SDS011;600;48.044;7.878;2022-10-16T13:50:14;2.03;;;1.93;;
1220;SDS011;600;48.044;7.878;2022-10-16T13:52:42;2.10;;;1.90;;
1220;SDS011;600;48.044;7.878;2022-10-16T13:55:10;3.90;;;1.83;;
1220;SDS011;600;48.044;7.878;2022-10-16T13:57:39;5.37;;;2.03;;
1220;SDS011;600;48.044;7.878;2022-10-16T14:00:20;2.37;;;1.90;;
1220;SDS011;600;48.044;7.878;2022-10-16T14:02:50;2.17;;;1.97;;
1220;SDS011;600;48.044;7.878;2022-10-16T14:05:21;4.00;;;1.73;;
1220;SDS011;600;48.044;7.878;2022-10-16T14:07:48;2.03;;;1.93;;
1220;SDS011;600;48.044;7.878;2022-10-16T14:10:21;1.90;;;1.80;;
1220;SDS011;600;48.044;7.878;2022-10-16T14:12:56;2.17;;;1.83;;
1220;SDS011;600;48.044;7.878;2022-10-16T14:15:24;2.70;;;1.50;;
1220;SDS011;600;48.044;7.878;2022-10-16T14:17:51;1.87;;;1.73;;
1220;SDS011;600;48.044;7.878;2022-10-16T14:20:20;1.90;;;1.67;;
1220;SDS011;600;48.044;7.878;2022-10-16T14:22:57;2.83;;;1.97;;
1220;SDS011;600;48.044;7.878;2022-10-16T14:25:27;2.03;;;1.80;;
1220;SDS011;600;48.044;7.878;2022-10-16T14:28:00;1.90;;;1.80;;
1220;SDS011;600;48.044;7.878;2022-10-16T14:30:29;2.00;;;1.60;;
1220;SDS011;600;48.044;7.878;2022-10-16T14:32:58;3.87;;;1.90;;
1220;SDS011;600;48.044;7.878;2022-10-16T14:35:27;1.77;;;1.53;;
1220;SDS011;600;48.044;7.878;2022-10-16T14:37:55;1.90;;;1.60;;
1220;SDS011;600;48.044;7.878;2022-10-16T14:40:24;4.10;;;1.57;;
1220;SDS011;600;48.044;7.878;2022-10-16T14:42:52;3.37;;;1.63;;
1220;SDS011;600;48.044;7.878;2022-10-16T14:45:22;2.00;;;1.90;;
1220;SDS011;600;48.044;7.878;2022-10-16T14:47:52;2.17;;;1.93;;
1220;SDS011;600;48.044;7.878;2022-10-16T14:50:21;1.83;;;1.73;;
1220;SDS011;600;48.044;7.878;2022-10-16T14:52:48;2.50;;;2.03;;
1220;SDS011;600;48.044;7.878;2022-10-16T14:55:15;3.80;;;2.30;;
1220;SDS011;600;48.044;7.878;2022-10-16T14:57:42;3.67;;;2.00;;
1220;SDS011;600;48.044;7.878;2022-10-16T15:00:13;3.03;;;2.73;;
1220;SDS011;600;48.044;7.878;2022-10-16T15:02:45;2.20;;;2.10;;
1220;SDS011;600;48.044;7.878;2022-10-16T15:05:15;2.60;;;2.10;;
1220;SDS011;600;48.044;7.878;2022-10-16T15:07:43;4.30;;;2.23;;
1220;SDS011;600;48.044;7.878;2022-10-16T15:10:10;1.93;;;1.83;;
1220;SDS011;600;48.044;7.878;2022-10-16T15:12:38;2.57;;;2.40;;
1220;SDS011;600;48.044;7.878;2022-10-16T15:15:14;9.00;;;4.50;;
1220;SDS011;600;48.044;7.878;2022-10-16T15:17:49;4.67;;;3.33;;
1220;SDS011;600;48.044;7.878;2022-10-16T15:20:17;3.63;;;3.33;;
1220;SDS011;600;48.044;7.878;2022-10-16T15:22:44;3.53;;;2.47;;
1220;SDS011;600;48.044;7.878;2022-10-16T15:25:11;2.50;;;2.30;;
1220;SDS011;600;48.044;7.878;2022-10-16T15:27:53;1.80;;;1.70;;
1220;SDS011;600;48.044;7.878;2022-10-16T15:30:20;1.90;;;1.80;;
1220;SDS011;600;48.044;7.878;2022-10-16T15:32:47;1.93;;;1.83;;
1220;SDS011;600;48.044;7.878;2022-10-16T15:35:15;1.80;;;1.70;;
1220;SDS011;600;48.044;7.878;2022-10-16T15:37:42;1.87;;;1.70;;
1220;SDS011;600;48.044;7.878;2022-10-16T15:40:09;2.20;;;2.00;;
1220;SDS011;600;48.044;7.878;2022-10-16T15:42:36;2.50;;;1.90;;
1220;SDS011;600;48.044;7.878;2022-10-16T15:45:03;2.00;;;1.90;;
1220;SDS011;600;48.044;7.878;2022-10-16T15:47:31;2.10;;;1.80;;
1220;SDS011;600;48.044;7.878;2022-10-16T15:49:59;2.33;;;2.13;;
1220;SDS011;600;48.044;7.878;2022-10-16T15:52:26;2.30;;;2.20;;
1220;SDS011;600;48.044;7.878;2022-10-16T15:54:53;2.67;;;2.47;;
1220;SDS011;600;48.044;7.878;2022-10-16T15:57:20;2.20;;;2.00;;